Current | Forecast
Updated: 8:50 PM EEST on April 20, 2018
Observed at Savonlinna, Finland
Temperature 39°F
Humidity 87%
Dew Point 36°F
Wind North at 0 mph
Pressure 29.68 in (Steady)
Conditions Clear
Visibility -
UV N/A
Clouds
Yesterday's Maximum 55°F
Yesterday's Minimum 41°F approx.
Yesterday's Heating Degree Days 17 approx.
Sunrise5:22 AM EEST
Sunset8:37 PM EEST
Moon Rise7:59 AM EEST
Moon Set1:06 AM EEST
Moon PhaseMoon Phase
Waxing Crescent
Raw METARMETAR EFSA 201750Z AUTO 00000KT CAVOK 04/02 Q1005


Monday
. High: 48° F.
Tuesday
. High: 50° F.
Wednesday
. High: 48° F.
Thursday
. High: 53° F.
Friday
. High: 48° F.
Saturday
. High: 46° F.
Sunday
. High: 50° F.
Monday
. High: 46° F.

Units: English | Metric

Find the Weather for any City, State or Zipcode, or Country:

U.S. State List | Severe Weather | Tropical Storms | Ski Conditions
United States | Canada | Central America | South America | Asia | Europe | Australia | Africa | Islands

Weather Underground

© Copyright 2018
The Weather Company, LLC